N551JL KFLO-KGMU
Flight info
| Callsign | N551JL |
|---|---|
| Flight time | 0h 41m |
| Altitude | 14000 |
| Route | BUBBA |
| Aircraft | BE20/L-SBGRY/S |
Departure
| Time | 2026-04-28 23:29 |
|---|---|
| Airport | Florence Regional Airport (KFLO) |
Arrival
| Time | 2026-04-29 00:10 |
|---|---|
| Airport | Greenville Downtown Airport (KGMU) |
| Time | Latitude | Longitude | Altitude | Speed | Heading |
|---|---|---|---|---|---|
| 2026-04-28 23:20 | 34.19352 | -79.73174 | 154 ft | 0 kts | 273° |
| 2026-04-28 23:25 | 34.19315 | -79.73196 | 154 ft | 14 kts | 184° |
| 2026-04-28 23:25 | 34.19172 | -79.73199 | 153 ft | 27 kts | 179° |
| 2026-04-28 23:25 | 34.18961 | -79.73214 | 152 ft | 34 kts | 186° |
| 2026-04-28 23:25 | 34.18768 | -79.73233 | 153 ft | 25 kts | 185° |
| 2026-04-28 23:26 | 34.18657 | -79.73280 | 154 ft | 12 kts | 261° |
| 2026-04-28 23:26 | 34.18636 | -79.73383 | 154 ft | 9 kts | 215° |
| 2026-04-28 23:26 | 34.18615 | -79.73391 | 154 ft | 0 kts | 184° |
| 2026-04-28 23:28 | 34.18541 | -79.73363 | 154 ft | 14 kts | 105° |
| 2026-04-28 23:28 | 34.18558 | -79.73179 | 155 ft | 30 kts | 86° |
| 2026-04-28 23:28 | 34.18608 | -79.72628 | 150 ft | 103 kts | 84° |
| 2026-04-28 23:28 | 34.18718 | -79.71538 | 267 ft | 151 kts | 83° |
| 2026-04-28 23:29 | 34.18883 | -79.70159 | 630 ft | 176 kts | 81° |
| 2026-04-28 23:29 | 34.19109 | -79.68671 | 1185 ft | 185 kts | 80° |
| 2026-04-28 23:29 | 34.19484 | -79.67178 | 1773 ft | 186 kts | 53° |
| 2026-04-28 23:29 | 34.20517 | -79.66342 | 2512 ft | 178 kts | 6° |
| 2026-04-28 23:30 | 34.21684 | -79.66549 | 3249 ft | 167 kts | 329° |
| 2026-04-28 23:30 | 34.22516 | -79.67428 | 3964 ft | 157 kts | 299° |
| 2026-04-28 23:30 | 34.22828 | -79.68663 | 4702 ft | 154 kts | 274° |
| 2026-04-28 23:30 | 34.22873 | -79.69954 | 5395 ft | 154 kts | 274° |
| 2026-04-28 23:31 | 34.22945 | -79.71252 | 6105 ft | 155 kts | 275° |
| 2026-04-28 23:31 | 34.23033 | -79.72559 | 6800 ft | 157 kts | 275° |
| 2026-04-28 23:31 | 34.23126 | -79.73881 | 7483 ft | 158 kts | 275° |
| 2026-04-28 23:31 | 34.23218 | -79.75206 | 8177 ft | 159 kts | 276° |
| 2026-04-28 23:32 | 34.23310 | -79.76523 | 8885 ft | 159 kts | 276° |
| 2026-04-28 23:32 | 34.23403 | -79.77858 | 9610 ft | 160 kts | 276° |
| 2026-04-28 23:32 | 34.23496 | -79.79198 | 10306 ft | 160 kts | 276° |
| 2026-04-28 23:32 | 34.23589 | -79.80540 | 10974 ft | 160 kts | 276° |
| 2026-04-28 23:33 | 34.23682 | -79.81882 | 11653 ft | 161 kts | 276° |
| 2026-04-28 23:33 | 34.23776 | -79.83231 | 12355 ft | 161 kts | 277° |
| 2026-04-28 23:33 | 34.23869 | -79.84582 | 13069 ft | 161 kts | 277° |
| 2026-04-28 23:33 | 34.23963 | -79.85935 | 13799 ft | 161 kts | 277° |
| 2026-04-28 23:34 | 34.24067 | -79.87395 | 14005 ft | 192 kts | 277° |
| 2026-04-28 23:34 | 34.24191 | -79.89124 | 14025 ft | 220 kts | 277° |
| 2026-04-28 23:34 | 34.24322 | -79.91044 | 14022 ft | 237 kts | 277° |
| 2026-04-28 23:34 | 34.24459 | -79.93075 | 14018 ft | 248 kts | 277° |
| 2026-04-28 23:35 | 34.24602 | -79.95181 | 14018 ft | 254 kts | 277° |
| 2026-04-28 23:35 | 34.24748 | -79.97322 | 14007 ft | 257 kts | 277° |
| 2026-04-28 23:35 | 34.24894 | -79.99479 | 14003 ft | 258 kts | 277° |
| 2026-04-28 23:35 | 34.25041 | -80.01648 | 14002 ft | 259 kts | 277° |
| 2026-04-28 23:36 | 34.25189 | -80.03828 | 14000 ft | 260 kts | 277° |
| 2026-04-28 23:36 | 34.25335 | -80.06001 | 14001 ft | 260 kts | 277° |
| 2026-04-28 23:36 | 34.25482 | -80.08187 | 13999 ft | 260 kts | 277° |
| 2026-04-28 23:36 | 34.25578 | -80.09617 | 13999 ft | 260 kts | 277° |
| 2026-04-28 23:37 | 34.25725 | -80.11810 | 13999 ft | 261 kts | 277° |
| 2026-04-28 23:37 | 34.25871 | -80.13994 | 13996 ft | 261 kts | 277° |
| 2026-04-28 23:37 | 34.26014 | -80.16146 | 13997 ft | 261 kts | 277° |
| 2026-04-28 23:37 | 34.26163 | -80.18390 | 13991 ft | 261 kts | 276° |
| 2026-04-28 23:38 | 34.26308 | -80.20578 | 13992 ft | 261 kts | 276° |
| 2026-04-28 23:38 | 34.26451 | -80.22749 | 13993 ft | 261 kts | 276° |
| 2026-04-28 23:38 | 34.26596 | -80.24949 | 13995 ft | 262 kts | 276° |
| 2026-04-28 23:38 | 34.26741 | -80.27162 | 13996 ft | 262 kts | 276° |
| 2026-04-28 23:39 | 34.26885 | -80.29363 | 14001 ft | 262 kts | 276° |
| 2026-04-28 23:39 | 34.27029 | -80.31558 | 14012 ft | 261 kts | 276° |
| 2026-04-28 23:39 | 34.27171 | -80.33751 | 14011 ft | 261 kts | 276° |
| 2026-04-28 23:39 | 34.27313 | -80.35938 | 14010 ft | 261 kts | 276° |
| 2026-04-28 23:40 | 34.27456 | -80.38137 | 14009 ft | 261 kts | 276° |
| 2026-04-28 23:40 | 34.27597 | -80.40326 | 14008 ft | 262 kts | 276° |
| 2026-04-28 23:40 | 34.27739 | -80.42521 | 14007 ft | 262 kts | 276° |
| 2026-04-28 23:40 | 34.27880 | -80.44714 | 14005 ft | 262 kts | 276° |
| 2026-04-28 23:41 | 34.28018 | -80.46874 | 14002 ft | 262 kts | 276° |
| 2026-04-28 23:41 | 34.28158 | -80.49077 | 14002 ft | 262 kts | 276° |
| 2026-04-28 23:41 | 34.28298 | -80.51271 | 14011 ft | 262 kts | 276° |
| 2026-04-28 23:41 | 34.28437 | -80.53460 | 14012 ft | 262 kts | 276° |
| 2026-04-28 23:42 | 34.28576 | -80.55653 | 14007 ft | 262 kts | 276° |
| 2026-04-28 23:42 | 34.28715 | -80.57852 | 14008 ft | 262 kts | 276° |
| 2026-04-28 23:42 | 34.28853 | -80.60047 | 14008 ft | 263 kts | 276° |
| 2026-04-28 23:42 | 34.28992 | -80.62258 | 14008 ft | 263 kts | 276° |
| 2026-04-28 23:43 | 34.29130 | -80.64456 | 14016 ft | 263 kts | 276° |
| 2026-04-28 23:43 | 34.29267 | -80.66662 | 14016 ft | 262 kts | 276° |
| 2026-04-28 23:43 | 34.29404 | -80.68860 | 14017 ft | 263 kts | 276° |
| 2026-04-28 23:43 | 34.29541 | -80.71063 | 14016 ft | 263 kts | 276° |
| 2026-04-28 23:44 | 34.29677 | -80.73269 | 14018 ft | 262 kts | 276° |
| 2026-04-28 23:44 | 34.29813 | -80.75465 | 14018 ft | 263 kts | 276° |
| 2026-04-28 23:44 | 34.29949 | -80.77669 | 14015 ft | 263 kts | 276° |
| 2026-04-28 23:44 | 34.30084 | -80.79879 | 14016 ft | 263 kts | 276° |
| 2026-04-28 23:45 | 34.30219 | -80.82083 | 14015 ft | 263 kts | 276° |
| 2026-04-28 23:45 | 34.30353 | -80.84282 | 14014 ft | 263 kts | 276° |
| 2026-04-28 23:45 | 34.30486 | -80.86478 | 14013 ft | 263 kts | 276° |
| 2026-04-28 23:45 | 34.30620 | -80.88685 | 14014 ft | 262 kts | 276° |
| 2026-04-28 23:46 | 34.30753 | -80.90888 | 14013 ft | 262 kts | 276° |
| 2026-04-28 23:46 | 34.30886 | -80.93092 | 14006 ft | 263 kts | 276° |
| 2026-04-28 23:46 | 34.31018 | -80.95296 | 14005 ft | 263 kts | 276° |
| 2026-04-28 23:46 | 34.31151 | -80.97507 | 14006 ft | 263 kts | 276° |
| 2026-04-28 23:47 | 34.31283 | -80.99718 | 14009 ft | 263 kts | 276° |
| 2026-04-28 23:47 | 34.31413 | -81.01905 | 14009 ft | 264 kts | 276° |
| 2026-04-28 23:47 | 34.31546 | -81.04151 | 14010 ft | 264 kts | 276° |
| 2026-04-28 23:47 | 34.31677 | -81.06357 | 14010 ft | 264 kts | 276° |
| 2026-04-28 23:48 | 34.31808 | -81.08576 | 14009 ft | 264 kts | 276° |
| 2026-04-28 23:48 | 34.31938 | -81.10791 | 14009 ft | 264 kts | 276° |
| 2026-04-28 23:48 | 34.32067 | -81.12998 | 14009 ft | 264 kts | 276° |
| 2026-04-28 23:48 | 34.32197 | -81.15215 | 14009 ft | 264 kts | 276° |
| 2026-04-28 23:49 | 34.32325 | -81.17422 | 14010 ft | 264 kts | 276° |
| 2026-04-28 23:49 | 34.32454 | -81.19638 | 14011 ft | 263 kts | 276° |
| 2026-04-28 23:49 | 34.32582 | -81.21849 | 14010 ft | 263 kts | 276° |
| 2026-04-28 23:49 | 34.32710 | -81.24060 | 14009 ft | 264 kts | 276° |
| 2026-04-28 23:50 | 34.32837 | -81.26276 | 14009 ft | 264 kts | 276° |
| 2026-04-28 23:50 | 34.32964 | -81.28489 | 14007 ft | 264 kts | 276° |
| 2026-04-28 23:50 | 34.33091 | -81.30711 | 14006 ft | 264 kts | 276° |
| 2026-04-28 23:50 | 34.33209 | -81.32791 | 14006 ft | 264 kts | 276° |
| 2026-04-28 23:51 | 34.33335 | -81.35005 | 14006 ft | 264 kts | 276° |
| 2026-04-28 23:51 | 34.33460 | -81.37209 | 14008 ft | 264 kts | 276° |
| 2026-04-28 23:51 | 34.33736 | -81.39399 | 14006 ft | 261 kts | 289° |
| 2026-04-28 23:51 | 34.34500 | -81.41374 | 14009 ft | 260 kts | 304° |
| 2026-04-28 23:52 | 34.35686 | -81.43032 | 14014 ft | 260 kts | 315° |
| 2026-04-28 23:52 | 34.36981 | -81.44559 | 14016 ft | 261 kts | 315° |
| 2026-04-28 23:52 | 34.38275 | -81.46098 | 14018 ft | 261 kts | 315° |
| 2026-04-28 23:52 | 34.39571 | -81.47645 | 14025 ft | 261 kts | 315° |
| 2026-04-28 23:53 | 34.40868 | -81.49189 | 14018 ft | 262 kts | 315° |
| 2026-04-28 23:53 | 34.42170 | -81.50738 | 14023 ft | 262 kts | 315° |
| 2026-04-28 23:53 | 34.43467 | -81.52284 | 14024 ft | 262 kts | 315° |
| 2026-04-28 23:53 | 34.44764 | -81.53829 | 14026 ft | 262 kts | 315° |
| 2026-04-28 23:54 | 34.46061 | -81.55377 | 14026 ft | 262 kts | 315° |
| 2026-04-28 23:54 | 34.47345 | -81.56909 | 14024 ft | 262 kts | 315° |
| 2026-04-28 23:54 | 34.48647 | -81.58462 | 14024 ft | 262 kts | 315° |
| 2026-04-28 23:54 | 34.49944 | -81.60012 | 14024 ft | 262 kts | 315° |
| 2026-04-28 23:55 | 34.51243 | -81.61563 | 14025 ft | 262 kts | 315° |
| 2026-04-28 23:55 | 34.52544 | -81.63118 | 14021 ft | 262 kts | 315° |
| 2026-04-28 23:55 | 34.53844 | -81.64673 | 14020 ft | 262 kts | 315° |
| 2026-04-28 23:55 | 34.55143 | -81.66228 | 14020 ft | 262 kts | 315° |
| 2026-04-28 23:56 | 34.56435 | -81.67774 | 14018 ft | 261 kts | 315° |
| 2026-04-28 23:56 | 34.57731 | -81.69327 | 14017 ft | 261 kts | 315° |
| 2026-04-28 23:56 | 34.59023 | -81.70874 | 14018 ft | 261 kts | 315° |
| 2026-04-28 23:56 | 34.60317 | -81.72425 | 14017 ft | 261 kts | 315° |
| 2026-04-28 23:57 | 34.61602 | -81.73966 | 14018 ft | 261 kts | 315° |
| 2026-04-28 23:57 | 34.62892 | -81.75513 | 14017 ft | 261 kts | 315° |
| 2026-04-28 23:57 | 34.64185 | -81.77065 | 14018 ft | 261 kts | 315° |
| 2026-04-28 23:57 | 34.65476 | -81.78616 | 14018 ft | 261 kts | 315° |
| 2026-04-28 23:58 | 34.66766 | -81.80165 | 14013 ft | 261 kts | 315° |
| 2026-04-28 23:58 | 34.68057 | -81.81718 | 14010 ft | 261 kts | 315° |
| 2026-04-28 23:58 | 34.69350 | -81.83272 | 14010 ft | 261 kts | 315° |
| 2026-04-28 23:58 | 34.70636 | -81.84820 | 14010 ft | 261 kts | 315° |
| 2026-04-28 23:59 | 34.71925 | -81.86371 | 14000 ft | 261 kts | 315° |
| 2026-04-28 23:59 | 34.73216 | -81.87925 | 13998 ft | 263 kts | 315° |
| 2026-04-28 23:59 | 34.74522 | -81.89500 | 13999 ft | 263 kts | 315° |
| 2026-04-28 23:59 | 34.75824 | -81.91069 | 13999 ft | 263 kts | 315° |
| 2026-04-29 00:00 | 34.77127 | -81.92639 | 13996 ft | 264 kts | 315° |
| 2026-04-29 00:00 | 34.78428 | -81.94209 | 13995 ft | 264 kts | 315° |
| 2026-04-29 00:00 | 34.79730 | -81.95782 | 13994 ft | 264 kts | 315° |
| 2026-04-29 00:00 | 34.81043 | -81.97368 | 13857 ft | 268 kts | 315° |
| 2026-04-29 00:01 | 34.82392 | -81.98996 | 13440 ft | 277 kts | 315° |
| 2026-04-29 00:01 | 34.83772 | -82.00665 | 13014 ft | 282 kts | 314° |
| 2026-04-29 00:01 | 34.85170 | -82.02355 | 12595 ft | 283 kts | 314° |
| 2026-04-29 00:01 | 34.86564 | -82.04041 | 12170 ft | 283 kts | 314° |
| 2026-04-29 00:02 | 34.87964 | -82.05736 | 11765 ft | 283 kts | 313° |
| 2026-04-29 00:02 | 34.89355 | -82.07421 | 11256 ft | 284 kts | 313° |
| 2026-04-29 00:02 | 34.90761 | -82.09124 | 10462 ft | 283 kts | 313° |
| 2026-04-29 00:02 | 34.92145 | -82.10800 | 9627 ft | 279 kts | 312° |
| 2026-04-29 00:03 | 34.93518 | -82.12466 | 8690 ft | 277 kts | 313° |
| 2026-04-29 00:03 | 34.94874 | -82.14113 | 7796 ft | 275 kts | 313° |
| 2026-04-29 00:03 | 34.96224 | -82.15753 | 6913 ft | 273 kts | 314° |
| 2026-04-29 00:03 | 34.97561 | -82.17377 | 6027 ft | 270 kts | 314° |
| 2026-04-29 00:04 | 34.98887 | -82.18989 | 5150 ft | 268 kts | 315° |
| 2026-04-29 00:04 | 35.00154 | -82.20530 | 4992 ft | 244 kts | 315° |
| 2026-04-29 00:04 | 35.01248 | -82.21982 | 4977 ft | 224 kts | 304° |
| 2026-04-29 00:04 | 35.01950 | -82.23645 | 4883 ft | 220 kts | 294° |
| 2026-04-29 00:05 | 35.02552 | -82.25399 | 4482 ft | 227 kts | 293° |
| 2026-04-29 00:05 | 35.03147 | -82.27184 | 4090 ft | 227 kts | 292° |
| 2026-04-29 00:05 | 35.03744 | -82.28928 | 3991 ft | 216 kts | 292° |
| 2026-04-29 00:05 | 35.04245 | -82.30602 | 3975 ft | 206 kts | 281° |
| 2026-04-29 00:06 | 35.04049 | -82.32300 | 3969 ft | 207 kts | 245° |
| 2026-04-29 00:06 | 35.03060 | -82.33564 | 3978 ft | 209 kts | 216° |
| 2026-04-29 00:06 | 35.01802 | -82.34453 | 3976 ft | 210 kts | 201° |
| 2026-04-29 00:06 | 35.00344 | -82.34583 | 3976 ft | 213 kts | 175° |
| 2026-04-29 00:07 | 34.98863 | -82.34420 | 4000 ft | 214 kts | 180° |
| 2026-04-29 00:07 | 34.97369 | -82.34419 | 4005 ft | 215 kts | 184° |
| 2026-04-29 00:07 | 34.95868 | -82.34495 | 4004 ft | 215 kts | 185° |
| 2026-04-29 00:07 | 34.94391 | -82.34559 | 3981 ft | 206 kts | 184° |
| 2026-04-29 00:08 | 34.92979 | -82.34588 | 3552 ft | 201 kts | 184° |
| 2026-04-29 00:08 | 34.91629 | -82.34621 | 3043 ft | 189 kts | 190° |
| 2026-04-29 00:08 | 34.90353 | -82.34718 | 2492 ft | 179 kts | 186° |
| 2026-04-29 00:08 | 34.89150 | -82.34717 | 2091 ft | 163 kts | 184° |
| 2026-04-29 00:09 | 34.88129 | -82.34733 | 1706 ft | 125 kts | 185° |
| 2026-04-29 00:09 | 34.87315 | -82.34769 | 1496 ft | 121 kts | 186° |
| 2026-04-29 00:09 | 34.86453 | -82.34792 | 1296 ft | 122 kts | 185° |
| 2026-04-29 00:09 | 34.85619 | -82.34816 | 1088 ft | 116 kts | 184° |
| 2026-04-29 00:10 | 34.84896 | -82.34842 | 1022 ft | 85 kts | 180° |
| 2026-04-29 00:10 | 34.84626 | -82.34842 | 1023 ft | 21 kts | 168° |
| 2026-04-29 00:10 | 34.84580 | -82.34788 | 1023 ft | 11 kts | 103° |
| 2026-04-29 00:10 | 34.84628 | -82.34745 | 1023 ft | 15 kts | 2° |
| 2026-04-29 00:11 | 34.84751 | -82.34742 | 1022 ft | 16 kts | 360° |
| 2026-04-29 00:11 | 34.84864 | -82.34740 | 1024 ft | 20 kts | 5° |
| 2026-04-29 00:11 | 34.85126 | -82.34731 | 1026 ft | 18 kts | 6° |
| 2026-04-29 00:12 | 34.85234 | -82.34726 | 1026 ft | 6 kts | 2° |
| 2026-04-29 00:12 | 34.85261 | -82.34679 | 1028 ft | 10 kts | 92° |
| 2026-04-29 00:12 | 34.85267 | -82.34610 | 1029 ft | 3 kts | 7° |
| 2026-04-29 00:12 | 34.85268 | -82.34610 | 1029 ft | 0 kts | 4° |